Time;durP1;ratioP1;P1;durP2;ratioP2;P2;SDS_P1;SDS_P2;PMS_P1;PMS_P2;Temp;Humidity;BMP_temperature;BMP_pressure;BME280_temperature;BME280_humidity;BME280_pressure;Samples;Min_cycle;Max_cycle;Signal;HPM_P1;HPM_P2
2022/07/02 00:00:53;;;;;;;0.38;0.38;;;11.20;99.90;;;;;;5007408;28;20960;-79
2022/07/02 00:04:06;;;;;;;0.30;0.30;;;11.20;99.90;;;;;;5004018;28;20439;-79
2022/07/02 00:06:37;;;;;;;0.50;0.50;;;11.10;99.90;;;;;;5010081;28;20444;-79
2022/07/02 00:09:07;;;;;;;0.20;0.20;;;11.00;99.90;;;;;;5009169;28;20433;-80
2022/07/02 00:11:34;;;;;;;0.45;0.45;;;10.90;99.90;;;;;;5009616;28;20440;-79
2022/07/02 00:14:02;;;;;;;0.30;0.30;;;10.90;99.90;;;;;;5010239;28;20849;-79
2022/07/02 00:16:30;;;;;;;0.45;0.45;;;10.80;99.90;;;;;;5011133;28;20440;-79
2022/07/02 00:18:57;;;;;;;0.30;0.30;;;10.80;99.90;;;;;;5008209;28;20963;-79
2022/07/02 00:21:24;;;;;;;0.32;0.32;;;10.80;99.90;;;;;;5007942;28;20448;-79
2022/07/02 00:23:51;;;;;;;0.25;0.25;;;10.90;99.90;;;;;;5005736;28;20519;-79
2022/07/02 00:26:28;;;;;;;0.40;0.40;;;10.80;99.90;;;;;;5008037;28;20457;-79
2022/07/02 00:29:14;;;;;;;0.40;0.40;;;10.80;99.90;;;;;;4992564;28;20515;-79
2022/07/02 00:31:41;;;;;;;0.40;0.40;;;10.70;99.90;;;;;;5002243;28;21156;-79
2022/07/02 00:34:08;;;;;;;0.40;0.40;;;10.60;99.90;;;;;;5004338;28;20436;-80
2022/07/02 00:36:37;;;;;;;0.38;0.38;;;10.60;99.90;;;;;;5011286;28;20440;-79
2022/07/02 00:39:03;;;;;;;0.40;0.40;;;10.70;99.90;;;;;;5014010;28;21033;-78
2022/07/02 00:41:32;;;;;;;0.45;0.45;;;10.70;99.90;;;;;;5012366;28;20444;-79
2022/07/02 00:44:00;;;;;;;0.30;0.30;;;10.70;99.90;;;;;;5009774;28;20434;-79
2022/07/02 00:46:30;;;;;;;0.30;0.30;;;10.80;99.90;;;;;;5017105;28;20428;-79
2022/07/02 00:49:01;;;;;;;0.40;0.40;;;10.70;99.90;;;;;;5012976;28;20433;-79
2022/07/02 00:51:28;;;;;;;0.40;0.40;;;10.60;99.90;;;;;;5001564;28;20434;-78
2022/07/02 00:53:55;;;;;;;0.60;0.60;;;10.60;99.90;;;;;;5009161;28;20782;-80
2022/07/02 00:56:22;;;;;;;0.50;0.50;;;10.60;99.90;;;;;;5004847;28;21012;-80
2022/07/02 00:58:49;;;;;;;0.30;0.30;;;10.50;99.90;;;;;;5012824;28;21081;-80
2022/07/02 01:01:15;;;;;;;0.32;0.32;;;10.50;99.90;;;;;;5012976;28;20844;-81
2022/07/02 01:03:44;;;;;;;0.30;0.30;;;10.50;99.90;;;;;;5011763;28;20580;-80
2022/07/02 01:06:15;;;;;;;0.30;0.30;;;10.50;99.90;;;;;;5012561;28;20544;-79
2022/07/02 01:11:31;;;;;;;0.30;0.30;;;10.50;99.90;;;;;;5011324;28;20938;-78
2022/07/02 01:13:58;;;;;;;0.50;0.50;;;10.50;99.90;;;;;;5004419;28;20444;-78
2022/07/02 01:16:25;;;;;;;0.40;0.40;;;10.40;99.90;;;;;;5012229;28;20432;-79
2022/07/02 01:18:54;;;;;;;0.43;0.43;;;10.40;99.90;;;;;;5011912;28;20478;-80
2022/07/02 01:21:20;;;;;;;0.75;0.75;;;10.40;99.90;;;;;;5013132;28;20479;-79
2022/07/02 01:24:05;;;;;;;0.50;0.50;;;10.40;99.90;;;;;;5012427;28;20428;-79
2022/07/02 01:26:31;;;;;;;0.52;0.52;;;10.30;99.90;;;;;;5011881;28;20954;-79
2022/07/02 01:28:58;;;;;;;0.70;0.60;;;10.30;99.90;;;;;;5027258;28;20432;-79
2022/07/02 01:31:25;;;;;;;0.70;0.70;;;10.30;99.90;;;;;;5011543;28;20511;-79
2022/07/02 01:33:52;;;;;;;1.10;0.52;;;10.30;99.90;;;;;;5013139;28;20799;-79
2022/07/02 01:36:18;;;;;;;0.90;0.90;;;10.20;99.90;;;;;;5011936;28;20445;-79
2022/07/02 01:38:45;;;;;;;0.80;0.70;;;10.20;99.90;;;;;;5012482;28;20511;-79
2022/07/02 01:43:57;;;;;;;1.00;1.00;;;10.20;99.90;;;;;;5007786;28;20794;-79
2022/07/02 01:46:24;;;;;;;0.52;0.52;;;10.20;99.90;;;;;;5011671;28;20512;-78
2022/07/02 01:48:51;;;;;;;0.40;0.40;;;10.20;99.90;;;;;;4997240;28;20466;-78
2022/07/02 01:51:18;;;;;;;0.30;0.30;;;10.20;99.90;;;;;;4998042;28;20436;-78
2022/07/02 01:53:45;;;;;;;0.35;0.35;;;10.20;99.90;;;;;;5008873;28;20969;-79
2022/07/02 01:56:11;;;;;;;0.50;0.50;;;10.30;99.90;;;;;;4999316;28;20436;-80
2022/07/02 01:58:38;;;;;;;0.30;0.30;;;10.40;99.90;;;;;;5012433;28;20429;-79
2022/07/02 02:01:05;;;;;;;0.30;0.30;;;10.40;99.90;;;;;;5011037;28;20463;-80
2022/07/02 02:03:32;;;;;;;0.35;0.35;;;10.30;99.90;;;;;;5026308;28;20456;-80
2022/07/02 02:06:02;;;;;;;0.40;0.40;;;10.30;99.90;;;;;;5011492;28;20428;-79
2022/07/02 02:08:29;;;;;;;0.28;0.28;;;10.20;99.90;;;;;;5012176;28;20432;-78
2022/07/02 02:10:56;;;;;;;0.32;0.32;;;10.10;99.90;;;;;;5012066;28;20470;-79
2022/07/02 02:13:22;;;;;;;0.25;0.20;;;10.00;99.90;;;;;;5008950;28;20432;-78
2022/07/02 02:15:49;;;;;;;0.40;0.40;;;9.90;99.90;;;;;;5011392;28;20436;-79
2022/07/02 02:18:16;;;;;;;0.30;0.30;;;9.90;99.90;;;;;;5011802;28;20526;-79
2022/07/02 02:20:43;;;;;;;0.30;0.30;;;9.90;99.90;;;;;;5011277;28;20772;-78
2022/07/02 02:23:10;;;;;;;0.30;0.30;;;9.90;99.90;;;;;;5009498;28;20441;-79
2022/07/02 02:25:37;;;;;;;0.45;0.45;;;9.90;99.90;;;;;;5012097;28;21018;-78
2022/07/02 02:28:04;;;;;;;0.22;0.22;;;10.00;99.90;;;;;;5013088;28;20428;-78
2022/07/02 02:30:30;;;;;;;0.90;0.40;;;10.00;99.90;;;;;;5010544;28;20440;-78
2022/07/02 02:32:57;;;;;;;0.30;0.30;;;10.00;99.90;;;;;;5011314;28;20450;-79
2022/07/02 02:35:24;;;;;;;0.47;0.43;;;9.90;99.90;;;;;;5010579;28;20517;-79
2022/07/02 02:37:51;;;;;;;0.50;0.30;;;9.80;99.90;;;;;;5011279;28;20442;-79
2022/07/02 02:40:21;;;;;;;0.50;0.30;;;9.80;99.90;;;;;;5012178;28;20451;-80
2022/07/02 02:42:50;;;;;;;0.50;0.50;;;9.70;99.90;;;;;;5011163;28;20524;-79
2022/07/02 02:45:17;;;;;;;0.30;0.30;;;9.70;99.90;;;;;;5009377;28;20432;-80
2022/07/02 02:47:44;;;;;;;0.38;0.38;;;9.60;99.90;;;;;;5010902;28;20437;-79
2022/07/02 02:50:11;;;;;;;0.23;0.23;;;9.70;99.90;;;;;;5012559;28;20439;-79
2022/07/02 02:52:37;;;;;;;0.20;0.20;;;9.70;99.90;;;;;;5024802;28;20803;-78
2022/07/02 02:55:07;;;;;;;0.28;0.28;;;9.70;99.90;;;;;;5008898;28;20432;-78
2022/07/02 02:57:33;;;;;;;0.20;0.20;;;9.70;99.90;;;;;;5011379;28;20511;-77
2022/07/02 03:00:00;;;;;;;0.20;0.20;;;9.80;99.90;;;;;;5010079;28;20428;-78
2022/07/02 03:02:27;;;;;;;0.40;0.30;;;9.90;99.90;;;;;;5010733;28;20435;-77
2022/07/02 03:04:53;;;;;;;0.10;0.10;;;9.90;99.90;;;;;;5008555;28;20430;-78
2022/07/02 03:07:20;;;;;;;0.20;0.20;;;9.90;99.90;;;;;;5011361;28;20919;-79
2022/07/02 03:09:47;;;;;;;0.35;0.35;;;9.80;99.90;;;;;;4996015;28;21442;-79
2022/07/02 03:12:14;;;;;;;0.22;0.22;;;9.80;99.90;;;;;;5011478;28;20508;-79
2022/07/02 03:14:40;;;;;;;0.40;0.40;;;9.70;99.90;;;;;;5010380;28;20679;-79
2022/07/02 03:17:08;;;;;;;0.40;0.40;;;9.70;99.90;;;;;;5008363;28;20464;-78
2022/07/02 03:19:34;;;;;;;0.40;0.40;;;9.70;99.90;;;;;;5010869;28;20432;-78
2022/07/02 03:22:02;;;;;;;0.30;0.30;;;9.80;99.90;;;;;;5009530;28;20527;-79
2022/07/02 03:24:28;;;;;;;0.50;0.50;;;9.80;99.90;;;;;;5010365;28;20439;-79
2022/07/02 03:26:55;;;;;;;0.35;0.35;;;9.80;99.90;;;;;;5006351;28;20479;-78
2022/07/02 03:29:23;;;;;;;0.30;0.30;;;9.80;99.90;;;;;;5010614;28;20420;-78
2022/07/02 03:31:52;;;;;;;0.20;0.20;;;9.80;99.90;;;;;;5011032;28;20486;-78
2022/07/02 03:34:19;;;;;;;0.30;0.30;;;9.90;99.90;;;;;;5010650;28;20491;-79
2022/07/02 03:36:46;;;;;;;0.60;0.38;;;9.90;99.90;;;;;;5006953;28;20447;-79
2022/07/02 03:39:13;;;;;;;0.22;0.22;;;9.90;99.90;;;;;;5011023;28;20448;-80
2022/07/02 03:41:39;;;;;;;0.30;0.30;;;9.90;99.90;;;;;;5009308;28;20540;-79
2022/07/02 03:44:08;;;;;;;0.30;0.30;;;9.90;99.90;;;;;;5008207;28;20436;-79
2022/07/02 03:46:35;;;;;;;0.40;0.40;;;9.80;99.90;;;;;;5009260;28;20468;-79
2022/07/02 03:49:04;;;;;;;0.20;0.20;;;9.70;99.90;;;;;;5009962;28;20428;-79
2022/07/02 03:51:34;;;;;;;0.50;0.50;;;9.70;99.90;;;;;;5003324;28;20428;-79
2022/07/02 03:54:01;;;;;;;0.30;0.30;;;9.70;99.90;;;;;;4994056;28;21050;-79
2022/07/02 03:56:28;;;;;;;0.30;0.30;;;9.70;99.90;;;;;;5008841;28;20471;-79
2022/07/02 03:58:55;;;;;;;0.40;0.40;;;9.70;99.90;;;;;;5008067;28;20457;-79
2022/07/02 04:01:24;;;;;;;0.20;0.20;;;9.70;99.90;;;;;;5010338;28;20781;-79
2022/07/02 04:03:53;;;;;;;0.32;0.22;;;9.70;99.90;;;;;;5010260;28;21006;-79
2022/07/02 04:06:31;;;;;;;0.20;0.20;;;9.80;99.90;;;;;;5008560;28;20433;-79
2022/07/02 04:08:58;;;;;;;0.25;0.25;;;9.80;99.90;;;;;;4992823;28;20430;-79
2022/07/02 04:11:27;;;;;;;0.10;0.10;;;9.90;99.90;;;;;;5005559;28;20923;-79
2022/07/02 04:13:54;;;;;;;0.30;0.30;;;10.00;99.90;;;;;;5013828;28;20779;-80
2022/07/02 04:16:21;;;;;;;0.20;0.20;;;10.10;99.90;;;;;;5014163;28;20511;-79
2022/07/02 04:18:48;;;;;;;0.20;0.20;;;10.20;99.90;;;;;;5009993;28;20440;-79
2022/07/02 04:21:34;;;;;;;0.30;0.30;;;10.30;99.90;;;;;;5003777;28;20511;-79
2022/07/02 04:24:01;;;;;;;0.40;0.20;;;10.40;99.90;;;;;;5006028;28;20531;-80
2022/07/02 04:26:28;;;;;;;0.20;0.20;;;10.50;99.90;;;;;;5011961;28;20519;-79
2022/07/02 04:28:55;;;;;;;0.20;0.20;;;10.60;99.90;;;;;;5021313;28;20456;-79
2022/07/02 04:31:21;;;;;;;0.25;0.25;;;10.80;99.90;;;;;;5030030;28;20539;-79
2022/07/02 04:33:48;;;;;;;0.20;0.20;;;10.90;99.90;;;;;;5015222;28;20436;-80
2022/07/02 04:36:18;;;;;;;0.32;0.32;;;11.00;99.90;;;;;;5013702;28;20436;-80
2022/07/02 04:38:47;;;;;;;0.30;0.30;;;11.20;99.90;;;;;;5012639;28;20447;-80
2022/07/02 04:41:14;;;;;;;0.40;0.40;;;11.30;99.90;;;;;;5013373;28;20471;-79
2022/07/02 04:43:40;;;;;;;0.22;0.22;;;11.40;99.90;;;;;;5012492;28;20437;-79
2022/07/02 04:46:07;;;;;;;0.20;0.20;;;11.80;99.90;;;;;;5009392;28;20428;-80
2022/07/02 04:48:34;;;;;;;0.10;0.10;;;12.80;99.90;;;;;;5008087;28;20432;-80
2022/07/02 04:51:01;;;;;;;0.20;0.20;;;13.90;99.90;;;;;;5011167;28;20516;-79
2022/07/02 04:53:28;;;;;;;0.30;0.30;;;14.90;99.90;;;;;;5007464;28;20517;-79
2022/07/02 04:55:55;;;;;;;0.40;0.40;;;15.90;99.90;;;;;;5010635;28;20442;-79
2022/07/02 04:58:21;;;;;;;0.32;0.32;;;16.90;99.90;;;;;;5010468;28;20436;-80
2022/07/02 05:00:48;;;;;;;0.30;0.30;;;17.80;99.90;;;;;;5009724;28;20875;-78
2022/07/02 05:03:15;;;;;;;0.40;0.40;;;18.60;99.90;;;;;;5010355;28;20466;-78
2022/07/02 05:05:42;;;;;;;0.30;0.30;;;19.40;99.90;;;;;;5013771;28;20432;-79
2022/07/02 05:08:09;;;;;;;0.43;0.43;;;20.10;99.90;;;;;;5004304;28;20522;-78
2022/07/02 05:10:38;;;;;;;0.30;0.30;;;20.70;99.90;;;;;;5014622;28;20456;-78
2022/07/02 05:13:05;;;;;;;0.50;0.50;;;21.10;99.90;;;;;;5013370;28;20477;-78
2022/07/02 05:15:42;;;;;;;0.32;0.32;;;21.70;99.90;;;;;;5016355;28;20463;-78
2022/07/02 05:18:13;;;;;;;0.40;0.40;;;22.30;99.90;;;;;;5008976;28;20533;-78
2022/07/02 05:20:40;;;;;;;0.50;0.50;;;22.70;99.90;;;;;;5011945;28;20429;-78
2022/07/02 05:23:07;;;;;;;0.50;0.50;;;23.00;99.90;;;;;;5004260;28;20464;-78
2022/07/02 05:25:37;;;;;;;0.40;0.40;;;23.30;99.90;;;;;;5020083;28;20483;-77
2022/07/02 05:28:04;;;;;;;0.60;0.60;;;23.40;99.90;;;;;;5010388;28;20430;-78
2022/07/02 05:30:30;;;;;;;0.40;0.40;;;23.40;99.90;;;;;;5009506;28;20523;-77
2022/07/02 05:32:57;;;;;;;0.50;0.50;;;23.50;99.90;;;;;;5008040;28;20554;-78
2022/07/02 05:35:24;;;;;;;0.50;0.50;;;23.60;99.90;;;;;;5013654;28;20511;-79
2022/07/02 05:37:51;;;;;;;0.50;0.50;;;23.70;99.90;;;;;;5011880;28;20528;-78
2022/07/02 05:40:18;;;;;;;0.40;0.40;;;23.60;99.90;;;;;;5008738;28;20477;-77
2022/07/02 05:42:45;;;;;;;0.60;0.60;;;23.50;99.90;;;;;;5010482;28;20449;-77
2022/07/02 05:45:13;;;;;;;0.50;0.50;;;23.90;99.90;;;;;;4997059;28;20430;-76
2022/07/02 05:47:39;;;;;;;0.70;0.70;;;24.30;99.90;;;;;;5008852;28;20460;-78
2022/07/02 05:50:07;;;;;;;0.60;0.60;;;24.20;99.90;;;;;;5016323;28;20504;-77
2022/07/02 05:52:34;;;;;;;1.00;1.00;;;24.40;99.90;;;;;;5011277;28;20439;-75
2022/07/02 05:55:01;;;;;;;0.80;0.80;;;24.30;99.90;;;;;;5007565;28;20437;-76
2022/07/02 05:57:28;;;;;;;0.80;0.80;;;24.50;99.90;;;;;;5024793;28;20995;-76
2022/07/02 05:59:56;;;;;;;0.90;0.90;;;24.50;99.90;;;;;;5018395;28;20513;-77
2022/07/02 06:02:24;;;;;;;0.60;0.60;;;24.60;99.90;;;;;;5005113;28;20439;-77
2022/07/02 06:04:51;;;;;;;0.73;0.73;;;24.60;99.90;;;;;;5020937;28;20442;-72
2022/07/02 06:10:03;;;;;;;0.60;0.60;;;23.90;99.90;;;;;;5023059;28;20450;-77
2022/07/02 06:12:30;;;;;;;0.75;0.75;;;24.30;99.90;;;;;;5002921;28;20428;-76
2022/07/02 06:15:04;;;;;;;0.80;0.80;;;24.60;99.90;;;;;;5006078;28;20438;-75
2022/07/02 06:17:30;;;;;;;0.60;0.60;;;24.70;99.90;;;;;;5012427;28;20437;-75
2022/07/02 06:19:57;;;;;;;0.63;0.63;;;24.80;99.90;;;;;;5010717;28;20436;-76
2022/07/02 06:22:24;;;;;;;0.75;0.75;;;25.00;99.90;;;;;;4999096;28;20424;-76
2022/07/02 06:24:52;;;;;;;0.60;0.60;;;25.10;99.90;;;;;;5011460;28;20770;-74
2022/07/02 06:27:18;;;;;;;0.80;0.80;;;25.00;99.90;;;;;;5009169;28;20428;-76
2022/07/02 06:29:48;;;;;;;0.70;0.70;;;25.00;99.90;;;;;;5008411;28;20456;-76
2022/07/02 06:32:16;;;;;;;0.80;0.80;;;25.00;99.90;;;;;;5005510;28;20981;-74
2022/07/02 06:34:43;;;;;;;0.70;0.70;;;25.20;99.90;;;;;;5003067;28;20522;-74
2022/07/02 06:37:10;;;;;;;0.73;0.73;;;24.70;99.90;;;;;;5009854;28;20439;-75
2022/07/02 06:39:37;;;;;;;0.80;0.80;;;24.90;99.90;;;;;;5007458;28;20449;-75
2022/07/02 06:42:20;;;;;;;0.80;0.70;;;25.30;99.90;;;;;;5009892;28;20443;-75
2022/07/02 06:44:49;;;;;;;0.63;0.63;;;25.30;99.90;;;;;;5007821;28;20450;-74
2022/07/02 06:47:22;;;;;;;0.70;0.70;;;25.40;99.90;;;;;;5011770;28;20441;-74
2022/07/02 06:49:50;;;;;;;0.70;0.70;;;25.70;99.90;;;;;;5009897;28;20941;-77
2022/07/02 06:52:17;;;;;;;0.70;0.70;;;26.10;99.90;;;;;;5013913;28;20436;-75
2022/07/02 06:54:44;;;;;;;0.80;0.80;;;25.70;99.90;;;;;;5008016;28;20436;-75
2022/07/02 06:57:12;;;;;;;0.60;0.60;;;25.80;99.90;;;;;;4998842;28;20443;-75
2022/07/02 06:59:39;;;;;;;0.77;0.77;;;25.40;99.90;;;;;;5008742;28;20436;-75
2022/07/02 07:02:06;;;;;;;0.80;0.80;;;25.10;99.90;;;;;;5010910;28;20527;-75
2022/07/02 07:04:38;;;;;;;0.70;0.70;;;24.90;99.90;;;;;;5001842;28;20434;-74
2022/07/02 07:07:10;;;;;;;0.77;0.77;;;25.60;99.90;;;;;;5011859;28;20445;-75
2022/07/02 07:09:37;;;;;;;0.73;0.73;;;26.10;99.90;;;;;;5005720;28;20441;-74
2022/07/02 07:12:05;;;;;;;0.75;0.75;;;26.30;99.90;;;;;;5003357;28;20436;-75
2022/07/02 07:14:34;;;;;;;0.70;0.70;;;26.30;99.90;;;;;;5003986;28;20526;-74
2022/07/02 07:17:02;;;;;;;0.60;0.60;;;25.40;99.90;;;;;;5002116;28;20436;-74
2022/07/02 07:19:29;;;;;;;0.60;0.60;;;24.90;99.90;;;;;;5000087;28;20525;-76
2022/07/02 07:21:56;;;;;;;0.50;0.50;;;25.50;99.90;;;;;;4998057;28;20445;-75
2022/07/02 07:24:22;;;;;;;0.50;0.50;;;25.90;99.90;;;;;;5002029;28;21172;-75
2022/07/02 07:26:49;;;;;;;0.50;0.50;;;26.20;99.90;;;;;;5004184;28;20495;-75
2022/07/02 07:29:16;;;;;;;0.50;0.50;;;26.60;99.90;;;;;;4998117;28;20540;-75
2022/07/02 07:31:46;;;;;;;0.57;0.57;;;26.80;99.90;;;;;;5001856;28;21125;-76
2022/07/02 07:34:13;;;;;;;0.43;0.43;;;26.90;99.90;;;;;;5010048;28;20432;-76
2022/07/02 07:36:40;;;;;;;0.50;0.50;;;26.80;99.90;;;;;;5007497;28;20445;-78
2022/07/02 07:39:07;;;;;;;0.52;0.52;;;26.90;99.90;;;;;;5003642;28;20437;-75
2022/07/02 07:41:34;;;;;;;0.50;0.50;;;27.10;99.90;;;;;;4986142;28;20437;-75
2022/07/02 07:44:01;;;;;;;0.40;0.40;;;27.30;99.90;;;;;;5008474;28;20900;-74
2022/07/02 07:46:28;;;;;;;0.70;0.70;;;27.50;99.90;;;;;;5009987;28;20512;-75
2022/07/02 07:48:56;;;;;;;0.50;0.50;;;27.80;99.90;;;;;;4996277;28;20444;-75
2022/07/02 07:51:23;;;;;;;0.68;0.68;;;27.70;99.90;;;;;;5008111;28;20850;-75
2022/07/02 07:53:50;;;;;;;0.57;0.57;;;27.40;99.90;;;;;;5001464;28;20964;-74
2022/07/02 07:56:20;;;;;;;0.50;0.50;;;27.60;99.90;;;;;;5008816;28;20437;-74
2022/07/02 07:58:50;;;;;;;0.50;0.50;;;27.80;99.90;;;;;;5023858;28;20459;-73
2022/07/02 08:01:17;;;;;;;0.43;0.43;;;27.20;99.90;;;;;;5007398;28;20523;-74
2022/07/02 08:03:44;;;;;;;0.60;0.60;;;27.50;99.90;;;;;;5005552;28;20969;-74
2022/07/02 08:06:11;;;;;;;0.40;0.40;;;27.10;99.90;;;;;;5008997;28;20442;-75
2022/07/02 08:08:38;;;;;;;0.47;0.47;;;27.30;99.90;;;;;;5009867;28;20477;-76
2022/07/02 08:11:04;;;;;;;0.40;0.40;;;27.20;99.90;;;;;;5016085;28;20509;-76
2022/07/02 08:13:31;;;;;;;0.50;0.50;;;27.60;99.90;;;;;;5001823;28;20468;-75
2022/07/02 08:15:59;;;;;;;0.47;0.47;;;28.10;99.90;;;;;;5005949;28;21162;-74
2022/07/02 08:18:27;;;;;;;0.50;0.50;;;28.70;99.90;;;;;;5028291;28;21120;-74
2022/07/02 08:20:54;;;;;;;0.40;0.40;;;28.90;99.90;;;;;;5016091;28;20445;-74
2022/07/02 08:23:21;;;;;;;0.40;0.40;;;29.10;99.90;;;;;;4996815;28;20434;-73
2022/07/02 08:25:48;;;;;;;0.45;0.45;;;27.80;99.50;;;;;;5006006;28;20428;-75
2022/07/02 08:28:15;;;;;;;0.47;0.47;;;28.20;99.20;;;;;;5006842;28;20922;-75
2022/07/02 08:30:41;;;;;;;0.50;0.50;;;28.10;99.80;;;;;;5020618;28;20430;-74
2022/07/02 08:33:14;;;;;;;0.40;0.40;;;27.70;99.90;;;;;;5010055;28;20795;-75
2022/07/02 08:35:40;;;;;;;0.35;0.35;;;27.70;99.80;;;;;;5006578;28;20514;-75
2022/07/02 08:38:11;;;;;;;0.50;0.50;;;28.10;98.80;;;;;;5009800;28;20551;-74
2022/07/02 08:40:42;;;;;;;0.40;0.40;;;28.30;99.60;;;;;;5010930;28;20475;-74
2022/07/02 08:43:13;;;;;;;0.40;0.40;;;28.30;99.10;;;;;;5008792;28;20519;-74
2022/07/02 08:45:42;;;;;;;0.47;0.40;;;28.80;99.00;;;;;;5008316;28;20483;-72
2022/07/02 08:48:10;;;;;;;0.30;0.30;;;29.00;98.10;;;;;;5008832;28;20442;-75
2022/07/02 08:50:38;;;;;;;0.30;0.30;;;29.00;97.10;;;;;;5018804;28;20528;-75
2022/07/02 08:53:06;;;;;;;0.30;0.30;;;28.80;96.80;;;;;;5007332;28;20428;-74
2022/07/02 08:55:34;;;;;;;0.40;0.40;;;28.30;96.30;;;;;;5002230;28;20528;-74
2022/07/02 08:58:03;;;;;;;0.30;0.30;;;27.80;97.00;;;;;;5025054;28;20435;-70
2022/07/02 09:00:30;;;;;;;0.30;0.30;;;27.10;97.60;;;;;;5002769;28;20442;-76
2022/07/02 09:02:58;;;;;;;0.30;0.30;;;27.30;97.30;;;;;;5004604;28;20433;-71
2022/07/02 09:05:27;;;;;;;0.22;0.22;;;26.90;97.50;;;;;;4997601;28;20429;-72
2022/07/02 09:07:55;;;;;;;0.30;0.30;;;27.50;97.70;;;;;;5001855;28;20432;-70
2022/07/02 09:10:26;;;;;;;0.33;0.33;;;28.10;96.70;;;;;;5008151;28;20440;-71
2022/07/02 09:12:55;;;;;;;0.40;0.40;;;28.40;96.00;;;;;;5008445;28;20445;-72
2022/07/02 09:15:22;;;;;;;0.30;0.30;;;28.80;95.90;;;;;;5009475;28;20634;-71
2022/07/02 09:17:50;;;;;;;0.30;0.30;;;28.00;95.70;;;;;;5007753;28;20436;-71
2022/07/02 09:20:17;;;;;;;0.30;0.30;;;28.00;95.70;;;;;;5020004;28;20475;-72
2022/07/02 09:22:49;;;;;;;0.38;0.38;;;28.10;94.50;;;;;;5011406;28;20444;-71
2022/07/02 09:25:25;;;;;;;0.32;0.32;;;27.00;95.20;;;;;;5005531;28;20440;-71
2022/07/02 09:28:03;;;;;;;0.20;0.20;;;26.70;95.70;;;;;;5015461;28;20583;-72
2022/07/02 09:30:32;;;;;;;0.60;0.20;;;26.20;94.70;;;;;;5004649;28;20437;-71
2022/07/02 09:35:50;;;;;;;0.30;0.30;;;27.00;95.70;;;;;;5006818;28;21444;-72
2022/07/02 09:38:16;;;;;;;0.22;0.22;;;27.30;94.80;;;;;;5010295;28;20512;-73
2022/07/02 09:40:54;;;;;;;0.20;0.20;;;27.40;94.90;;;;;;5009437;28;21001;-73
2022/07/02 09:43:35;;;;;;;0.40;0.40;;;26.90;93.50;;;;;;5003900;28;20428;-72
2022/07/02 09:46:12;;;;;;;0.30;0.30;;;27.40;95.50;;;;;;5004706;28;20437;-72
2022/07/02 09:48:39;;;;;;;0.20;0.20;;;28.00;95.10;;;;;;5004027;28;20515;-72
2022/07/02 09:51:07;;;;;;;0.20;0.20;;;28.70;94.60;;;;;;5012175;28;20426;-73
2022/07/02 09:53:34;;;;;;;0.20;0.20;;;28.10;93.80;;;;;;5012474;28;20473;-72
2022/07/02 09:56:05;;;;;;;0.40;0.20;;;28.20;93.60;;;;;;5005337;28;20548;-69
2022/07/02 09:58:33;;;;;;;0.30;0.30;;;27.90;93.40;;;;;;5022843;28;20436;-73
2022/07/02 10:01:03;;;;;;;0.30;0.30;;;27.90;94.90;;;;;;5008752;28;20436;-74
2022/07/02 10:03:30;;;;;;;0.28;0.28;;;28.40;94.70;;;;;;5004127;28;21152;-73
2022/07/02 10:05:57;;;;;;;0.30;0.30;;;29.00;94.90;;;;;;5011940;28;20450;-74
2022/07/02 10:08:24;;;;;;;0.30;0.30;;;28.30;94.80;;;;;;5008775;28;20520;-73
2022/07/02 10:10:51;;;;;;;0.22;0.22;;;28.50;94.50;;;;;;5009231;28;20528;-72
2022/07/02 10:13:18;;;;;;;0.40;0.40;;;28.20;94.50;;;;;;5005076;28;20458;-68
2022/07/02 10:16:00;;;;;;;0.30;0.30;;;28.00;95.30;;;;;;5011400;28;20472;-71
2022/07/02 10:18:28;;;;;;;0.30;0.30;;;28.50;95.20;;;;;;5009239;28;20862;-72
2022/07/02 10:20:56;;;;;;;0.33;0.33;;;28.40;94.50;;;;;;5017010;28;20496;-72
2022/07/02 10:23:25;;;;;;;0.30;0.30;;;28.30;94.80;;;;;;5010102;28;20866;-72
2022/07/02 10:25:53;;;;;;;0.30;0.30;;;28.30;95.20;;;;;;5002534;28;20546;-71
2022/07/02 10:28:20;;;;;;;0.30;0.30;;;28.20;94.60;;;;;;5005044;28;20433;-71
2022/07/02 10:30:47;;;;;;;0.30;0.30;;;27.50;94.80;;;;;;5013611;28;20870;-73
2022/07/02 10:33:31;;;;;;;0.20;0.20;;;27.40;95.30;;;;;;5008609;28;20540;-72
2022/07/02 10:35:59;;;;;;;0.30;0.30;;;27.70;95.60;;;;;;5011192;28;20515;-70
2022/07/02 10:38:40;;;;;;;0.30;0.30;;;28.20;94.90;;;;;;4995898;28;20478;-70
2022/07/02 10:41:09;;;;;;;0.30;0.30;;;28.80;94.00;;;;;;5007109;28;20466;-69
2022/07/02 10:43:38;;;;;;;0.40;0.40;;;28.80;94.00;;;;;;5018959;28;20431;-71
2022/07/02 10:46:13;;;;;;;0.30;0.30;;;29.00;94.80;;;;;;5020837;28;20844;-69
2022/07/02 10:48:48;;;;;;;0.30;0.30;;;29.00;93.60;;;;;;5015396;28;20477;-69
2022/07/02 10:51:19;;;;;;;0.30;0.30;;;29.20;94.50;;;;;;5009682;28;20436;-70
2022/07/02 10:53:56;;;;;;;0.25;0.25;;;29.30;93.80;;;;;;5012627;28;20480;-70
2022/07/02 10:56:23;;;;;;;0.32;0.32;;;29.20;93.00;;;;;;5008485;28;20432;-69
2022/07/02 10:58:50;;;;;;;0.30;0.30;;;29.30;94.10;;;;;;5004410;28;20855;-70
2022/07/02 11:01:22;;;;;;;0.30;0.30;;;29.50;94.10;;;;;;5006585;28;20694;-70
2022/07/02 11:04:03;;;;;;;0.20;0.20;;;29.70;94.00;;;;;;5005665;28;20444;-70
2022/07/02 11:06:32;;;;;;;0.30;0.30;;;29.90;94.30;;;;;;5012487;28;20430;-70
2022/07/02 11:08:59;;;;;;;0.22;0.22;;;29.50;93.50;;;;;;5009654;28;20436;-69
2022/07/02 11:11:39;;;;;;;0.30;0.30;;;28.60;93.50;;;;;;5015368;28;20442;-70
2022/07/02 11:14:07;;;;;;;0.30;0.30;;;29.00;94.40;;;;;;5005999;28;20440;-68
2022/07/02 11:16:48;;;;;;;0.23;0.23;;;28.50;93.70;;;;;;5007271;28;20438;-68
2022/07/02 11:19:18;;;;;;;0.22;0.22;;;28.20;94.20;;;;;;5008354;28;20447;-67
2022/07/02 11:21:47;;;;;;;0.20;0.20;;;27.10;94.50;;;;;;5018116;28;20508;-67
2022/07/02 11:24:20;;;;;;;0.30;0.30;;;26.70;95.10;;;;;;5010375;28;20563;-68
2022/07/02 11:26:47;;;;;;;0.30;0.30;;;27.20;95.30;;;;;;5008145;28;20443;-70
2022/07/02 11:29:15;;;;;;;0.20;0.20;;;27.70;95.20;;;;;;5006464;28;20509;-70
2022/07/02 11:31:45;;;;;;;0.30;0.30;;;27.70;94.20;;;;;;5019349;28;20434;-67
2022/07/02 11:34:20;;;;;;;0.30;0.30;;;28.40;94.50;;;;;;5000530;28;20432;-70
2022/07/02 11:36:51;;;;;;;0.30;0.30;;;28.90;93.90;;;;;;5002064;28;20581;-70
2022/07/02 11:39:22;;;;;;;0.30;0.30;;;29.00;94.00;;;;;;5018645;28;21021;-69
2022/07/02 11:41:52;;;;;;;0.30;0.30;;;28.90;93.80;;;;;;5008285;28;20465;-68
2022/07/02 11:44:24;;;;;;;0.40;0.40;;;28.90;94.10;;;;;;5006685;28;20432;-69
2022/07/02 11:47:00;;;;;;;0.35;0.35;;;28.70;94.10;;;;;;5013093;28;20503;-70
2022/07/02 11:49:38;;;;;;;0.30;0.30;;;28.70;93.90;;;;;;5014323;28;20471;-69
2022/07/02 11:52:08;;;;;;;0.30;0.30;;;28.70;94.60;;;;;;5008927;28;20428;-69
2022/07/02 11:54:41;;;;;;;0.30;0.30;;;29.30;95.30;;;;;;5011111;28;20528;-68
2022/07/02 11:57:09;;;;;;;0.30;0.30;;;29.70;93.10;;;;;;5006276;28;20502;-69
2022/07/02 11:59:36;;;;;;;0.30;0.30;;;29.00;93.00;;;;;;4998669;28;20440;-69
2022/07/02 12:02:03;;;;;;;0.30;0.30;;;28.80;93.80;;;;;;5015166;28;20435;-68
2022/07/02 12:04:34;;;;;;;0.20;0.20;;;28.60;93.70;;;;;;5004021;28;20432;-68
2022/07/02 12:07:03;;;;;;;0.20;0.20;;;28.60;93.70;;;;;;5015561;28;20491;-67
2022/07/02 12:09:30;;;;;;;0.30;0.30;;;28.40;93.20;;;;;;5001321;28;20796;-69
2022/07/02 12:12:03;;;;;;;0.20;0.20;;;28.30;94.10;;;;;;5008998;28;20444;-69
2022/07/02 12:14:30;;;;;;;0.20;0.20;;;28.50;94.10;;;;;;5003779;28;20533;-68
2022/07/02 12:16:58;;;;;;;0.28;0.28;;;28.70;94.30;;;;;;5005364;28;20432;-67
2022/07/02 12:19:30;;;;;;;0.30;0.30;;;29.60;93.80;;;;;;5011232;28;20454;-68
2022/07/02 12:21:57;;;;;;;0.30;0.30;;;30.20;93.30;;;;;;5007127;28;20436;-69
2022/07/02 12:24:27;;;;;;;0.25;0.25;;;30.30;92.60;;;;;;5006033;28;21076;-68
2022/07/02 12:27:06;;;;;;;0.28;0.28;;;30.00;93.40;;;;;;5005170;28;20448;-68
2022/07/02 12:29:53;;;;;;;0.30;0.30;;;29.40;92.50;;;;;;4990722;28;21001;-68
2022/07/02 12:32:22;;;;;;;0.40;0.40;;;29.50;93.30;;;;;;5001629;28;20434;-69
2022/07/02 12:34:58;;;;;;;0.30;0.30;;;29.30;93.20;;;;;;4993861;28;20467;-68
2022/07/02 12:37:29;;;;;;;0.20;0.20;;;29.20;93.30;;;;;;5005976;28;20437;-68
2022/07/02 12:40:03;;;;;;;0.20;0.20;;;28.90;93.10;;;;;;5013344;28;20428;-71
2022/07/02 12:42:33;;;;;;;0.30;0.30;;;28.60;93.10;;;;;;5015005;28;20462;-69
2022/07/02 12:45:05;;;;;;;0.20;0.20;;;28.30;94.20;;;;;;5009541;28;20471;-63
2022/07/02 12:47:35;;;;;;;0.20;0.20;;;28.20;93.00;;;;;;5002797;28;20438;-62
2022/07/02 12:50:11;;;;;;;0.30;0.30;;;27.70;94.00;;;;;;5015716;28;20429;-62
2022/07/02 12:52:51;;;;;;;0.20;0.20;;;28.10;94.50;;;;;;5008035;28;20512;-64
2022/07/02 12:55:29;;;;;;;0.20;0.20;;;28.00;93.30;;;;;;4991711;28;20440;-63
2022/07/02 12:58:08;;;;;;;0.20;0.20;;;28.50;92.30;;;;;;4998812;28;20442;-63
2022/07/02 13:00:38;;;;;;;0.20;0.20;;;29.00;92.30;;;;;;5001814;28;20432;-63
2022/07/02 13:03:07;;;;;;;0.20;0.20;;;28.50;92.00;;;;;;5004033;28;20452;-64
2022/07/02 13:05:37;;;;;;;0.20;0.20;;;28.70;92.20;;;;;;5003406;28;20440;-63
2022/07/02 13:08:04;;;;;;;1.00;0.20;;;29.10;91.90;;;;;;5004838;28;20521;-63